Time;durP1;ratioP1;P1;durP2;ratioP2;P2;SDS_P1;SDS_P2;PMS_P1;PMS_P2;Temp;Humidity;BMP_temperature;BMP_pressure;BME280_temperature;BME280_humidity;BME280_pressure;Samples;Min_cycle;Max_cycle;Signal;HPM_P1;HPM_P2
2023/04/18 00:01:21;;;;;;;16.13;9.47;;;7.60;99.90;;;;;;4758905;30;20164;-85
2023/04/18 00:03:49;;;;;;;14.90;9.57;;;7.60;99.90;;;;;;4774321;30;20320;-85
2023/04/18 00:06:15;;;;;;;14.47;9.80;;;7.60;99.90;;;;;;4758851;30;20138;-84
2023/04/18 00:08:40;;;;;;;17.23;9.83;;;7.50;99.90;;;;;;4773386;30;20431;-85
2023/04/18 00:11:06;;;;;;;15.90;9.67;;;7.60;99.90;;;;;;4743525;30;20047;-85
2023/04/18 00:13:32;;;;;;;17.33;10.40;;;7.50;99.90;;;;;;4758934;30;20055;-85
2023/04/18 00:15:58;;;;;;;15.73;10.20;;;7.50;99.90;;;;;;4773385;30;20054;-85
2023/04/18 00:18:25;;;;;;;14.73;10.40;;;7.40;99.90;;;;;;4758635;30;20086;-85
2023/04/18 00:20:52;;;;;;;16.37;10.40;;;7.40;99.90;;;;;;4773292;30;20070;-85
2023/04/18 00:23:20;;;;;;;17.70;9.77;;;7.40;99.90;;;;;;4758956;30;20684;-85
2023/04/18 00:25:46;;;;;;;14.10;9.80;;;7.40;99.90;;;;;;4758675;30;20292;-85
2023/04/18 00:28:12;;;;;;;15.10;9.27;;;7.50;99.90;;;;;;4759119;30;20685;-85
2023/04/18 00:30:38;;;;;;;15.60;9.03;;;7.50;99.90;;;;;;4758041;30;20320;-85
2023/04/18 00:33:04;;;;;;;14.20;9.47;;;7.50;99.90;;;;;;4743652;30;20051;-85
2023/04/18 00:35:30;;;;;;;15.17;9.57;;;7.60;99.90;;;;;;4743496;30;20146;-85
2023/04/18 00:37:57;;;;;;;16.27;9.80;;;7.60;99.90;;;;;;4772807;30;20489;-85
2023/04/18 00:40:23;;;;;;;15.93;9.83;;;7.70;99.90;;;;;;4758443;30;20638;-85
2023/04/18 00:42:48;;;;;;;16.70;10.03;;;7.70;99.90;;;;;;4758132;30;20312;-85
2023/04/18 00:45:14;;;;;;;13.77;8.80;;;7.70;99.90;;;;;;4758136;30;20485;-85
2023/04/18 00:47:40;;;;;;;14.53;10.27;;;7.70;99.90;;;;;;4772888;30;20051;-85
2023/04/18 00:50:07;;;;;;;15.27;10.57;;;7.70;99.90;;;;;;4772997;30;20493;-85
2023/04/18 00:52:34;;;;;;;15.70;9.95;;;7.60;99.90;;;;;;4772795;30;20043;-85
2023/04/18 00:55:02;;;;;;;14.52;9.55;;;7.60;99.90;;;;;;4758595;30;20055;-85
2023/04/18 00:57:28;;;;;;;16.83;10.82;;;7.60;99.90;;;;;;4757687;30;20067;-85
2023/04/18 00:59:54;;;;;;;15.73;11.10;;;7.50;99.90;;;;;;4772767;30;20087;-85
2023/04/18 01:02:20;;;;;;;16.70;11.03;;;7.40;99.90;;;;;;4757735;30;20389;-85
2023/04/18 01:04:46;;;;;;;15.77;10.85;;;7.40;99.90;;;;;;4772672;30;20093;-85
2023/04/18 01:07:12;;;;;;;14.90;9.73;;;7.40;99.90;;;;;;4772654;30;20109;-85
2023/04/18 01:09:39;;;;;;;18.67;11.13;;;7.30;99.90;;;;;;4757961;30;20349;-85
2023/04/18 01:12:05;;;;;;;15.40;10.27;;;7.30;99.90;;;;;;4772421;30;20047;-85
2023/04/18 01:14:30;;;;;;;17.57;10.17;;;7.30;99.90;;;;;;4772641;30;20446;-85
2023/04/18 01:16:57;;;;;;;16.00;9.53;;;7.30;99.90;;;;;;4772827;30;20313;-85
2023/04/18 01:19:23;;;;;;;15.73;10.10;;;7.30;99.90;;;;;;4757873;30;20059;-85
2023/04/18 01:21:52;;;;;;;14.43;10.90;;;7.30;99.90;;;;;;4757659;30;20485;-86
2023/04/18 01:24:18;;;;;;;15.43;9.68;;;7.30;99.90;;;;;;4772440;30;20400;-85
2023/04/18 01:26:46;;;;;;;17.70;10.87;;;7.30;99.90;;;;;;4743751;30;20051;-85
2023/04/18 01:29:12;;;;;;;16.77;9.63;;;7.30;99.90;;;;;;4743887;30;20055;-85
2023/04/18 01:31:39;;;;;;;14.68;10.73;;;7.30;99.90;;;;;;4757609;30;20053;-85
2023/04/18 01:34:06;;;;;;;14.73;9.52;;;7.20;99.90;;;;;;4757621;30;20047;-85
2023/04/18 01:36:32;;;;;;;14.95;10.55;;;7.30;99.90;;;;;;4772354;30;20051;-85
2023/04/18 01:38:58;;;;;;;13.60;9.52;;;7.30;99.90;;;;;;4772327;30;20518;-85
2023/04/18 01:41:24;;;;;;;12.55;8.95;;;7.20;99.90;;;;;;4772361;30;20138;-85
2023/04/18 01:43:50;;;;;;;13.60;9.70;;;7.20;99.90;;;;;;4772791;30;20473;-85
2023/04/18 01:46:15;;;;;;;19.97;10.37;;;7.20;99.90;;;;;;4772114;30;20055;-86
2023/04/18 01:48:42;;;;;;;13.87;8.27;;;7.20;99.90;;;;;;4757651;30;20090;-85
2023/04/18 01:51:07;;;;;;;12.60;8.43;;;7.20;99.90;;;;;;4772099;30;20059;-85
2023/04/18 01:53:33;;;;;;;18.87;9.70;;;7.20;99.90;;;;;;4758351;30;20105;-85
2023/04/18 01:55:59;;;;;;;13.73;9.00;;;7.20;99.90;;;;;;4771951;30;20304;-85
2023/04/18 01:58:25;;;;;;;13.20;9.50;;;7.10;99.90;;;;;;4756969;30;20070;-85
2023/04/18 02:00:57;;;;;;;11.85;9.30;;;7.20;99.90;;;;;;4772955;30;20063;-85
2023/04/18 02:03:23;;;;;;;12.02;9.13;;;7.10;99.90;;;;;;4787993;30;20047;-85
2023/04/18 02:05:50;;;;;;;12.40;8.85;;;7.10;99.90;;;;;;4772437;30;20058;-85
2023/04/18 02:08:16;;;;;;;13.13;9.23;;;7.00;99.90;;;;;;4772889;30;20377;-85
2023/04/18 02:10:41;;;;;;;13.80;9.10;;;7.10;99.90;;;;;;4772200;30;20043;-85
2023/04/18 02:13:07;;;;;;;12.60;8.33;;;7.10;99.90;;;;;;4758211;30;20091;-85
2023/04/18 02:15:34;;;;;;;12.30;8.63;;;7.10;99.90;;;;;;4775415;30;20047;-86
2023/04/18 02:18:00;;;;;;;14.50;8.93;;;7.10;99.90;;;;;;4760799;30;20396;-85
2023/04/18 02:20:27;;;;;;;13.73;8.52;;;7.00;99.90;;;;;;4775369;30;20063;-85
2023/04/18 02:22:53;;;;;;;15.35;9.43;;;7.00;99.90;;;;;;4760728;30;20126;-85
2023/04/18 02:25:22;;;;;;;14.70;7.87;;;7.00;99.90;;;;;;4761326;30;20139;-86
2023/04/18 02:27:48;;;;;;;12.70;8.52;;;7.10;99.90;;;;;;4775390;30;20058;-85
2023/04/18 02:30:14;;;;;;;13.75;8.38;;;7.00;99.90;;;;;;4791541;30;20087;-85
2023/04/18 02:32:40;;;;;;;13.40;7.87;;;7.00;99.90;;;;;;4791102;30;20143;-85
2023/04/18 02:35:06;;;;;;;12.77;7.97;;;7.00;99.90;;;;;;4775134;30;20575;-86
2023/04/18 02:37:31;;;;;;;13.70;8.18;;;6.90;99.90;;;;;;4760980;30;20051;-84
2023/04/18 02:39:57;;;;;;;14.60;8.10;;;6.90;99.90;;;;;;4760314;30;20053;-85
2023/04/18 02:42:23;;;;;;;12.90;7.47;;;7.00;99.90;;;;;;4760276;30;20059;-85
2023/04/18 02:44:48;;;;;;;10.57;7.30;;;7.00;99.90;;;;;;4760191;30;20109;-85
2023/04/18 02:47:14;;;;;;;10.73;7.37;;;7.00;99.90;;;;;;4760926;30;20147;-86
2023/04/18 02:49:40;;;;;;;10.53;6.97;;;6.90;99.90;;;;;;4760177;30;20047;-85
2023/04/18 02:52:06;;;;;;;10.03;6.63;;;7.00;99.90;;;;;;4775301;30;20062;-85
2023/04/18 02:54:31;;;;;;;11.30;6.63;;;7.00;99.90;;;;;;4760084;30;20404;-85
2023/04/18 02:56:57;;;;;;;10.27;6.93;;;7.00;99.90;;;;;;4745000;30;20107;-85
2023/04/18 02:59:23;;;;;;;10.10;6.63;;;7.00;99.90;;;;;;4760261;30;20493;-85
2023/04/18 03:01:48;;;;;;;10.97;7.00;;;7.00;99.90;;;;;;4761667;30;20508;-85
2023/04/18 03:04:14;;;;;;;10.60;7.00;;;7.00;99.90;;;;;;4749846;30;20055;-84
2023/04/18 03:06:40;;;;;;;9.63;6.23;;;7.00;99.90;;;;;;4779750;30;20062;-85
2023/04/18 03:09:06;;;;;;;10.40;6.47;;;7.00;99.90;;;;;;4776047;30;20047;-85
2023/04/18 03:11:32;;;;;;;10.97;6.30;;;7.00;99.90;;;;;;4774655;30;20377;-85
2023/04/18 03:13:57;;;;;;;9.67;6.07;;;7.00;99.90;;;;;;4760401;30;20142;-86
2023/04/18 03:16:23;;;;;;;9.53;6.67;;;7.00;99.90;;;;;;4759750;30;20047;-85
2023/04/18 03:18:49;;;;;;;10.70;6.10;;;7.00;99.90;;;;;;4775148;30;20055;-86
2023/04/18 03:21:14;;;;;;;10.43;6.43;;;7.00;99.90;;;;;;4745109;30;20051;-85
2023/04/18 03:23:40;;;;;;;8.83;6.07;;;7.00;99.90;;;;;;4774005;30;20059;-86
2023/04/18 03:26:07;;;;;;;11.37;6.33;;;7.00;99.90;;;;;;4759006;30;20059;-86
2023/04/18 03:28:33;;;;;;;10.45;6.93;;;7.00;99.90;;;;;;4774476;30;20485;-85
2023/04/18 03:30:59;;;;;;;11.75;6.50;;;7.00;99.90;;;;;;4774801;30;20476;-85
2023/04/18 03:33:24;;;;;;;9.43;5.93;;;7.00;99.90;;;;;;4774429;30;20112;-86
2023/04/18 03:35:50;;;;;;;10.07;6.53;;;7.10;99.90;;;;;;4774341;30;20289;-86
2023/04/18 03:38:16;;;;;;;9.90;6.47;;;7.10;99.90;;;;;;4774053;30;20048;-86
2023/04/18 03:40:43;;;;;;;10.53;6.17;;;7.10;99.90;;;;;;4774343;30;20047;-86
2023/04/18 03:43:09;;;;;;;9.90;6.13;;;7.10;99.90;;;;;;4774291;30;20059;-86
2023/04/18 03:45:35;;;;;;;10.95;6.65;;;7.10;99.90;;;;;;4759149;30;20196;-86
2023/04/18 03:48:01;;;;;;;10.10;6.77;;;7.10;99.90;;;;;;4758862;30;20134;-85
2023/04/18 03:50:27;;;;;;;9.60;6.23;;;7.10;99.90;;;;;;4758902;30;20658;-86
2023/04/18 03:52:53;;;;;;;10.27;6.70;;;7.10;99.90;;;;;;4759048;30;20301;-85
2023/04/18 03:55:19;;;;;;;9.60;6.10;;;7.20;99.90;;;;;;4744576;30;20300;-85
2023/04/18 03:57:46;;;;;;;12.57;7.10;;;7.10;99.90;;;;;;4758528;30;20305;-85
2023/04/18 04:00:12;;;;;;;10.93;6.50;;;7.10;99.90;;;;;;4759722;30;20062;-85
2023/04/18 04:02:38;;;;;;;9.05;5.80;;;7.10;99.90;;;;;;4758793;30;20062;-85
2023/04/18 04:05:04;;;;;;;12.17;6.67;;;7.10;99.90;;;;;;4773664;30;20048;-85
2023/04/18 04:07:31;;;;;;;10.17;6.57;;;7.10;99.90;;;;;;4773526;30;20074;-85
2023/04/18 04:09:57;;;;;;;10.23;6.35;;;7.10;99.90;;;;;;4743662;30;20059;-86
2023/04/18 04:12:24;;;;;;;12.45;6.32;;;7.10;99.90;;;;;;4744437;30;20052;-85
2023/04/18 04:14:50;;;;;;;10.57;6.85;;;7.10;99.90;;;;;;4773414;30;20086;-85
2023/04/18 04:17:16;;;;;;;11.20;6.13;;;7.10;99.90;;;;;;4773317;30;20082;-85
2023/04/18 04:19:42;;;;;;;10.80;5.87;;;7.00;99.90;;;;;;4759469;30;20489;-85
2023/04/18 04:22:08;;;;;;;12.10;6.23;;;7.10;99.90;;;;;;4758516;30;20559;-86
2023/04/18 04:24:34;;;;;;;9.27;6.30;;;7.10;99.90;;;;;;4758152;30;20055;-85
2023/04/18 04:27:02;;;;;;;12.77;7.25;;;7.10;99.90;;;;;;4743744;30;20438;-85
2023/04/18 04:29:28;;;;;;;9.77;6.45;;;7.20;99.90;;;;;;4758341;30;20055;-86
2023/04/18 04:37:04;;;;;;;11.20;6.03;;;7.30;99.90;;;;;;5307760;23;20059;-71
2023/04/18 04:39:30;;;;;;;11.17;5.77;;;7.30;99.90;;;;;;4772394;30;20066;-86
2023/04/18 04:41:56;;;;;;;9.67;5.97;;;7.30;99.90;;;;;;4757931;30;20063;-87
2023/04/18 04:44:24;;;;;;;10.20;5.72;;;7.40;99.90;;;;;;4773027;30;20047;-85
2023/04/18 04:46:51;;;;;;;11.05;5.57;;;7.40;99.90;;;;;;4758467;30;20104;-86
2023/04/18 04:49:17;;;;;;;8.82;5.70;;;7.50;99.90;;;;;;4758246;30;20055;-87
2023/04/18 04:51:43;;;;;;;11.85;6.32;;;7.50;99.90;;;;;;4772733;30;20086;-86
2023/04/18 04:54:08;;;;;;;9.07;5.73;;;7.60;99.90;;;;;;4743359;30;20055;-85
2023/04/18 04:56:35;;;;;;;9.43;6.07;;;7.60;99.90;;;;;;4758088;30;20134;-86
2023/04/18 04:59:01;;;;;;;11.57;6.05;;;7.60;99.90;;;;;;4758181;30;20071;-86
2023/04/18 05:01:26;;;;;;;8.83;6.20;;;7.60;99.90;;;;;;4772670;30;20459;-85
2023/04/18 05:03:52;;;;;;;10.03;5.70;;;7.70;99.90;;;;;;4758190;30;20074;-86
2023/04/18 05:06:19;;;;;;;11.30;5.80;;;7.70;99.90;;;;;;4772653;30;20058;-85
2023/04/18 05:08:49;;;;;;;10.20;6.82;;;7.70;99.90;;;;;;4758871;30;20057;-85
2023/04/18 05:11:15;;;;;;;10.77;5.93;;;7.70;99.90;;;;;;4772477;30;20075;-86
2023/04/18 05:13:41;;;;;;;8.70;5.85;;;7.80;99.90;;;;;;4758040;30;20051;-86
2023/04/18 05:16:07;;;;;;;9.93;6.20;;;7.80;99.90;;;;;;4773371;30;20054;-85
2023/04/18 05:18:33;;;;;;;9.23;7.03;;;7.80;99.90;;;;;;4772779;30;20051;-86
2023/04/18 05:20:59;;;;;;;9.60;7.20;;;7.80;99.90;;;;;;4743110;30;20125;-86
2023/04/18 05:23:24;;;;;;;10.33;6.70;;;7.80;99.90;;;;;;4758503;30;20477;-86
2023/04/18 05:25:51;;;;;;;10.43;5.93;;;7.80;99.90;;;;;;4757611;30;20422;-86
2023/04/18 05:28:16;;;;;;;11.60;6.70;;;7.90;99.90;;;;;;4773285;30;20055;-86
2023/04/18 05:30:43;;;;;;;10.47;7.10;;;7.90;99.90;;;;;;4772667;30;20541;-85
2023/04/18 05:33:09;;;;;;;9.77;6.75;;;7.90;99.90;;;;;;4773126;30;20146;-87
2023/04/18 05:35:35;;;;;;;11.33;6.70;;;7.90;99.90;;;;;;4772397;30;20134;-87
2023/04/18 05:38:00;;;;;;;13.20;7.13;;;7.90;99.90;;;;;;4772222;30;20063;-87
2023/04/18 05:40:27;;;;;;;12.83;7.40;;;7.90;99.90;;;;;;4772110;30;20500;-86
2023/04/18 05:42:52;;;;;;;10.88;7.15;;;7.90;99.90;;;;;;4772373;30;20537;-87
2023/04/18 05:45:18;;;;;;;11.33;7.10;;;8.00;99.90;;;;;;4772572;30;20052;-87
2023/04/18 05:47:44;;;;;;;11.90;7.93;;;8.10;99.90;;;;;;4744072;30;20063;-86
2023/04/18 05:50:10;;;;;;;11.53;7.43;;;8.10;99.90;;;;;;4775881;30;20157;-87
2023/04/18 05:52:37;;;;;;;11.00;7.10;;;8.10;99.90;;;;;;4761085;30;20442;-87
2023/04/18 05:55:07;;;;;;;10.30;6.93;;;8.00;99.90;;;;;;4761473;30;20484;-86
2023/04/18 05:57:32;;;;;;;10.47;7.60;;;8.10;99.90;;;;;;4775806;30;20067;-86
2023/04/18 05:59:58;;;;;;;12.30;7.60;;;8.00;99.90;;;;;;4791705;30;20291;-87
2023/04/18 06:02:24;;;;;;;11.03;7.17;;;8.10;99.90;;;;;;4761701;30;20063;-86
2023/04/18 06:04:50;;;;;;;10.03;7.23;;;8.00;99.90;;;;;;4746985;30;20120;-86
2023/04/18 06:07:16;;;;;;;12.73;8.32;;;8.10;99.90;;;;;;4760911;30;20492;-87
2023/04/18 06:09:41;;;;;;;14.23;8.90;;;8.10;99.90;;;;;;4791481;30;20134;-87
2023/04/18 06:12:07;;;;;;;12.03;8.90;;;8.20;99.90;;;;;;4775204;30;20057;-87
2023/04/18 06:14:33;;;;;;;10.60;7.43;;;8.20;99.90;;;;;;4775748;30;20583;-86
2023/04/18 06:16:59;;;;;;;11.73;7.97;;;9.10;99.90;;;;;;4775393;30;20509;-86
2023/04/18 06:19:24;;;;;;;11.13;8.10;;;10.40;99.90;;;;;;4775568;30;20060;-87
2023/04/18 06:21:52;;;;;;;11.13;7.40;;;11.00;99.90;;;;;;4776082;30;20100;-87
2023/04/18 06:24:17;;;;;;;11.23;7.07;;;10.70;99.90;;;;;;4775090;30;20054;-87
2023/04/18 06:26:43;;;;;;;10.27;7.63;;;10.30;99.90;;;;;;4760522;30;20301;-87
2023/04/18 06:29:09;;;;;;;11.37;7.63;;;10.00;99.90;;;;;;4760504;30;20136;-87
2023/04/18 06:31:35;;;;;;;11.03;7.70;;;9.60;99.90;;;;;;4775288;30;20054;-87
2023/04/18 06:34:00;;;;;;;12.73;7.83;;;9.30;99.90;;;;;;4774951;30;20062;-87
2023/04/18 06:36:26;;;;;;;11.87;7.63;;;9.20;99.90;;;;;;4760040;30;20060;-86
2023/04/18 06:38:55;;;;;;;11.90;7.40;;;9.20;99.90;;;;;;4760566;30;20071;-87
2023/04/18 06:41:20;;;;;;;13.70;7.70;;;9.40;99.90;;;;;;4775723;30;20316;-86
2023/04/18 06:43:46;;;;;;;12.17;7.90;;;9.80;99.90;;;;;;4775118;30;20063;-86
2023/04/18 06:46:12;;;;;;;14.00;7.37;;;10.00;99.90;;;;;;4745587;30;20500;-87
2023/04/18 06:48:37;;;;;;;10.50;6.90;;;10.60;99.90;;;;;;4760180;30;20137;-87
2023/04/18 06:51:03;;;;;;;9.87;6.73;;;11.00;99.90;;;;;;4790734;30;20055;-86
2023/04/18 06:53:29;;;;;;;11.30;7.30;;;11.40;99.90;;;;;;4760126;30;20048;-87
2023/04/18 06:55:55;;;;;;;10.67;7.17;;;11.70;99.90;;;;;;4760360;30;20132;-87
2023/04/18 06:58:21;;;;;;;9.60;7.03;;;12.00;99.90;;;;;;4745475;30;20047;-87
2023/04/18 07:00:50;;;;;;;9.83;7.33;;;12.90;99.90;;;;;;4773876;30;20161;-87
2023/04/18 07:03:16;;;;;;;9.97;7.20;;;13.90;99.90;;;;;;4760407;30;20063;-87
2023/04/18 07:05:42;;;;;;;10.80;6.70;;;14.50;99.90;;;;;;4759610;30;20297;-87
2023/04/18 07:08:07;;;;;;;12.07;7.10;;;14.70;96.40;;;;;;4774498;30;20137;-86
2023/04/18 07:10:33;;;;;;;9.37;6.53;;;15.40;97.50;;;;;;4745072;30;20446;-88
2023/04/18 07:12:59;;;;;;;11.67;6.83;;;15.50;90.10;;;;;;4774690;30;20047;-87
2023/04/18 07:15:25;;;;;;;10.60;6.87;;;15.80;85.80;;;;;;4745082;30;20500;-88
2023/04/18 07:17:50;;;;;;;10.50;6.23;;;15.90;75.70;;;;;;4745206;30;20500;-88
2023/04/18 07:20:16;;;;;;;10.93;6.90;;;16.50;79.60;;;;;;4774381;30;20381;-88
2023/04/18 07:22:42;;;;;;;11.10;6.37;;;16.70;74.40;;;;;;4744891;30;20054;-87
2023/04/18 07:25:08;;;;;;;9.30;6.03;;;17.00;68.80;;;;;;4774328;30;20052;-89
2023/04/18 07:27:35;;;;;;;9.10;6.17;;;16.80;62.10;;;;;;4774270;30;20480;-87
2023/04/18 07:30:04;;;;;;;9.83;7.00;;;16.80;62.80;;;;;;4759394;30;20297;-88
2023/04/18 07:32:35;;;;;;;11.60;6.47;;;16.60;60.90;;;;;;4774972;30;20047;-88
2023/04/18 07:35:02;;;;;;;9.77;6.00;;;16.70;58.20;;;;;;4745135;30;20093;-89
2023/04/18 07:37:27;;;;;;;8.30;5.80;;;16.70;59.90;;;;;;4744038;30;20145;-89
2023/04/18 07:39:53;;;;;;;7.87;5.83;;;16.70;54.30;;;;;;4774158;30;20567;-90
2023/04/18 07:42:19;;;;;;;8.77;5.87;;;17.10;58.20;;;;;;4774045;30;20063;-88
2023/04/18 07:44:45;;;;;;;10.10;6.27;;;17.60;55.40;;;;;;4759995;30;20096;-88
2023/04/18 07:47:11;;;;;;;10.57;5.80;;;17.70;51.10;;;;;;4774035;30;20090;-90
2023/04/18 07:49:37;;;;;;;11.37;6.43;;;18.00;54.70;;;;;;4759109;30;20090;-89
2023/04/18 07:52:03;;;;;;;12.90;6.30;;;17.40;54.20;;;;;;4773765;30;20051;-90
2023/04/18 07:54:29;;;;;;;9.90;6.70;;;16.40;54.10;;;;;;4774000;30;20062;-91
2023/04/18 07:56:56;;;;;;;9.43;7.03;;;15.70;55.70;;;;;;4773632;30;20051;-89
2023/04/18 07:59:22;;;;;;;10.10;6.43;;;15.00;57.80;;;;;;4773784;30;20066;-89
2023/04/18 08:01:48;;;;;;;8.97;6.13;;;14.60;58.60;;;;;;4758721;30;20055;-89
2023/04/18 08:04:14;;;;;;;9.40;6.60;;;14.20;60.70;;;;;;4773903;30;20062;-89
2023/04/18 08:06:40;;;;;;;16.97;7.03;;;13.60;59.60;;;;;;4773729;30;20055;-88
2023/04/18 08:09:06;;;;;;;9.53;6.67;;;13.40;62.20;;;;;;4773589;30;20505;-88
2023/04/18 08:11:34;;;;;;;9.97;6.27;;;13.00;62.80;;;;;;4773274;30;20359;-88
2023/04/18 08:14:00;;;;;;;11.37;7.07;;;12.80;64.00;;;;;;4789924;30;20063;-88
2023/04/18 08:16:27;;;;;;;9.77;6.53;;;12.70;65.30;;;;;;4759462;30;20319;-88
2023/04/18 08:18:53;;;;;;;10.27;6.60;;;12.70;67.80;;;;;;4758662;30;20085;-88
2023/04/18 08:21:19;;;;;;;9.20;6.47;;;12.70;67.20;;;;;;4773351;30;20315;-89
2023/04/18 08:23:45;;;;;;;10.73;7.17;;;12.60;68.10;;;;;;4744822;30;20101;-88
2023/04/18 08:26:11;;;;;;;9.90;7.57;;;12.70;69.70;;;;;;4758484;30;20305;-88
2023/04/18 08:28:37;;;;;;;11.17;6.97;;;12.70;71.10;;;;;;4758507;30;20297;-88
2023/04/18 08:31:03;;;;;;;9.80;7.30;;;12.60;73.60;;;;;;4782590;30;20107;-88
2023/04/18 08:33:28;;;;;;;11.63;7.23;;;12.60;75.10;;;;;;4781166;29;20051;-88
2023/04/18 08:35:54;;;;;;;12.20;6.43;;;12.50;77.10;;;;;;4793351;30;20054;-88
2023/04/18 08:38:20;;;;;;;10.57;7.03;;;12.50;77.30;;;;;;4775725;30;20059;-89
2023/04/18 08:40:46;;;;;;;12.90;7.87;;;12.50;77.70;;;;;;4759502;30;20063;-88
2023/04/18 08:43:13;;;;;;;13.33;7.13;;;12.50;80.20;;;;;;4773082;30;20051;-88
2023/04/18 08:45:43;;;;;;;15.80;7.43;;;12.40;78.40;;;;;;4788911;30;20066;-86
2023/04/18 08:48:12;;;;;;;11.13;7.07;;;12.50;79.00;;;;;;4773821;30;20395;-87
2023/04/18 08:50:42;;;;;;;11.67;7.10;;;12.50;75.80;;;;;;4772980;30;20313;-87
2023/04/18 08:53:08;;;;;;;10.47;6.57;;;12.40;73.30;;;;;;4772726;30;20338;-86
2023/04/18 08:55:34;;;;;;;12.00;7.33;;;12.30;73.70;;;;;;4758236;30;20305;-88
2023/04/18 08:58:01;;;;;;;11.00;6.47;;;12.20;77.20;;;;;;4773142;30;20454;-88
2023/04/18 09:00:28;;;;;;;10.97;6.83;;;12.20;74.20;;;;;;4758080;30;20297;-88
2023/04/18 09:02:55;;;;;;;14.97;8.00;;;12.10;75.40;;;;;;4758887;30;20630;-88
2023/04/18 09:05:23;;;;;;;12.77;6.83;;;12.10;76.90;;;;;;4758158;30;20303;-88
2023/04/18 09:07:51;;;;;;;12.13;7.00;;;12.20;75.00;;;;;;4772832;30;20297;-88
2023/04/18 09:10:35;;;;;;;10.13;6.87;;;12.20;73.70;;;;;;4773361;30;20289;-88
2023/04/18 09:13:02;;;;;;;9.13;5.97;;;12.20;72.60;;;;;;4758379;30;20328;-87
2023/04/18 09:15:28;;;;;;;9.43;6.40;;;12.10;76.30;;;;;;4772621;30;20297;-88
2023/04/18 09:17:59;;;;;;;9.70;6.23;;;12.20;74.40;;;;;;4773333;30;20354;-88
2023/04/18 09:20:40;;;;;;;10.53;6.30;;;12.30;72.40;;;;;;4772633;30;20777;-88
2023/04/18 09:23:13;;;;;;;8.53;6.40;;;12.20;72.60;;;;;;4772941;30;20309;-88
2023/04/18 09:25:45;;;;;;;9.97;6.33;;;12.20;75.60;;;;;;4758129;30;20313;-88
2023/04/18 09:28:31;;;;;;;13.60;6.53;;;12.30;78.90;;;;;;4772640;30;20471;-88
2023/04/18 09:31:08;;;;;;;12.53;6.47;;;12.30;76.50;;;;;;4773197;30;20320;-88
2023/04/18 09:33:35;;;;;;;9.70;6.53;;;12.40;75.70;;;;;;4772557;30;20658;-87
2023/04/18 09:36:21;;;;;;;9.63;6.53;;;12.30;77.30;;;;;;4757970;30;20782;-87
2023/04/18 09:38:48;;;;;;;12.03;7.20;;;12.40;76.70;;;;;;4788979;30;20394;-86
2023/04/18 09:41:15;;;;;;;11.47;6.73;;;12.50;78.40;;;;;;4788437;30;20293;-87
2023/04/18 09:43:42;;;;;;;11.57;7.13;;;12.50;77.40;;;;;;4772440;30;20300;-86
2023/04/18 09:46:08;;;;;;;10.17;6.67;;;12.50;77.20;;;;;;4772111;30;20304;-87
2023/04/18 09:48:34;;;;;;;11.40;6.67;;;12.40;74.40;;;;;;4772247;30;20336;-85
2023/04/18 09:51:12;;;;;;;10.30;6.77;;;12.40;78.80;;;;;;4788460;30;20308;-87
2023/04/18 09:53:40;;;;;;;11.43;6.80;;;12.50;76.00;;;;;;4788385;30;20288;-87
2023/04/18 09:56:23;;;;;;;10.70;6.80;;;12.60;76.70;;;;;;4788571;30;20288;-86
2023/04/18 09:58:55;;;;;;;12.93;6.40;;;12.50;76.70;;;;;;4758900;30;20304;-86
2023/04/18 10:01:26;;;;;;;11.13;7.43;;;12.50;72.50;;;;;;4777130;30;20321;-87
2023/04/18 10:03:54;;;;;;;11.43;6.63;;;12.50;75.70;;;;;;4775167;30;20297;-87
2023/04/18 10:06:20;;;;;;;10.47;6.03;;;12.50;76.40;;;;;;4773918;30;20308;-87
2023/04/18 10:08:47;;;;;;;14.90;6.70;;;12.50;75.90;;;;;;4789295;30;20331;-87
2023/04/18 10:11:14;;;;;;;11.37;6.53;;;12.60;74.40;;;;;;4759333;30;20043;-87
2023/04/18 10:13:41;;;;;;;11.00;7.00;;;12.60;74.00;;;;;;4773140;30;20618;-86
2023/04/18 10:16:08;;;;;;;13.40;7.73;;;12.60;74.20;;;;;;4772663;30;20301;-87
2023/04/18 10:18:35;;;;;;;11.70;7.60;;;12.60;76.30;;;;;;4773410;30;20297;-87
2023/04/18 10:21:02;;;;;;;9.67;6.00;;;12.60;75.80;;;;;;4760010;30;20296;-87
2023/04/18 10:23:31;;;;;;;10.63;6.57;;;12.70;75.90;;;;;;4774690;30;20300;-87
2023/04/18 10:25:58;;;;;;;11.77;7.20;;;12.70;76.70;;;;;;4775876;30;20445;-87
2023/04/18 10:28:25;;;;;;;9.17;6.27;;;12.70;74.30;;;;;;4774665;30;20304;-87
2023/04/18 10:31:02;;;;;;;9.73;6.00;;;12.70;76.80;;;;;;4775082;30;20320;-87
2023/04/18 10:33:35;;;;;;;11.97;6.37;;;12.80;75.00;;;;;;4774783;30;20297;-86
2023/04/18 10:36:03;;;;;;;12.53;6.10;;;12.70;76.70;;;;;;4775232;30;20383;-87
2023/04/18 10:38:31;;;;;;;11.90;5.90;;;12.80;73.40;;;;;;4765271;30;20300;-87
2023/04/18 10:41:12;;;;;;;9.90;6.17;;;12.70;74.40;;;;;;4781964;30;20384;-87
2023/04/18 10:44:21;;;;;;;12.13;7.50;;;12.70;73.20;;;;;;4780929;30;20472;-87
2023/04/18 10:46:49;;;;;;;9.30;6.33;;;12.70;73.10;;;;;;4707224;30;20307;-87
2023/04/18 10:49:26;;;;;;;10.47;6.00;;;12.80;75.30;;;;;;4755672;30;20335;-87
2023/04/18 10:51:54;;;;;;;9.87;6.37;;;12.80;77.10;;;;;;4775976;30;20323;-87
2023/04/18 10:54:27;;;;;;;11.23;6.73;;;12.90;75.20;;;;;;4776054;30;20305;-87
2023/04/18 10:56:58;;;;;;;9.03;6.23;;;12.90;72.20;;;;;;4775462;30;20439;-86
2023/04/18 10:59:25;;;;;;;11.60;6.60;;;13.00;73.90;;;;;;4775773;30;20679;-86
2023/04/18 11:01:58;;;;;;;14.77;6.77;;;13.00;73.40;;;;;;4775216;30;20305;-86
2023/04/18 11:04:24;;;;;;;9.10;6.40;;;13.00;74.00;;;;;;4774910;30;20342;-86
2023/04/18 11:06:53;;;;;;;11.47;6.50;;;13.00;75.60;;;;;;4774789;30;20379;-86
2023/04/18 11:09:20;;;;;;;12.40;6.47;;;13.00;77.10;;;;;;4760207;30;20301;-87
2023/04/18 11:12:01;;;;;;;8.00;5.57;;;13.00;75.60;;;;;;4774221;30;20316;-85
2023/04/18 11:14:55;;;;;;;8.77;6.00;;;13.00;75.80;;;;;;4775019;30;20362;-86
2023/04/18 11:17:23;;;;;;;9.63;5.90;;;12.90;76.30;;;;;;4774968;30;20387;-87
2023/04/18 11:20:11;;;;;;;8.93;6.17;;;12.90;77.90;;;;;;4775105;30;20301;-87
2023/04/18 11:22:51;;;;;;;9.27;5.40;;;13.00;80.70;;;;;;4775322;30;20307;-86
2023/04/18 11:25:21;;;;;;;8.37;5.37;;;13.10;79.70;;;;;;4790567;30;20630;-86
2023/04/18 11:27:50;;;;;;;8.67;5.43;;;13.10;79.60;;;;;;4774487;30;20304;-86
2023/04/18 11:30:16;;;;;;;8.00;5.30;;;13.10;80.60;;;;;;4788928;30;20789;-86
2023/04/18 11:32:43;;;;;;;9.00;4.93;;;13.10;81.80;;;;;;4790903;30;20309;-87
2023/04/18 11:35:11;;;;;;;8.67;5.50;;;13.10;81.70;;;;;;4774327;30;20860;-87
2023/04/18 11:37:38;;;;;;;9.77;5.40;;;13.20;82.30;;;;;;4759290;30;20639;-86
2023/04/18 11:40:07;;;;;;;7.10;4.87;;;13.20;84.30;;;;;;4773999;30;20296;-87
2023/04/18 11:42:34;;;;;;;7.93;4.50;;;13.20;86.50;;;;;;4790050;30;20285;-86
2023/04/18 11:45:01;;;;;;;7.70;5.00;;;13.40;89.80;;;;;;4759228;30;20729;-86
2023/04/18 11:47:29;;;;;;;9.43;5.20;;;13.60;90.20;;;;;;4774066;30;20299;-86
2023/04/18 11:50:03;;;;;;;7.83;5.27;;;13.60;85.00;;;;;;4789987;30;20289;-86
2023/04/18 11:52:30;;;;;;;8.10;5.80;;;13.60;85.20;;;;;;4774125;30;20313;-87
2023/04/18 11:55:09;;;;;;;7.77;4.80;;;13.50;84.20;;;;;;4774266;30;20377;-87
2023/04/18 11:57:35;;;;;;;8.90;5.20;;;13.50;87.40;;;;;;4774418;30;20285;-87
2023/04/18 12:00:02;;;;;;;9.17;5.00;;;13.40;87.00;;;;;;4760081;30;20661;-87
2023/04/18 12:02:47;;;;;;;7.70;5.30;;;13.40;87.40;;;;;;4759083;30;20300;-87
2023/04/18 12:05:30;;;;;;;8.02;5.03;;;13.50;84.50;;;;;;4790504;30;20340;-87
2023/04/18 12:08:12;;;;;;;7.50;5.07;;;13.50;86.90;;;;;;4774665;30;20051;-85
2023/04/18 12:10:49;;;;;;;9.27;5.30;;;13.40;85.50;;;;;;4789568;30;20289;-84
2023/04/18 12:13:15;;;;;;;9.97;4.70;;;13.40;88.20;;;;;;4774378;30;20608;-86
2023/04/18 12:15:43;;;;;;;9.17;5.37;;;13.40;89.60;;;;;;4788371;30;20350;-86
2023/04/18 12:18:11;;;;;;;9.60;5.23;;;13.40;88.20;;;;;;4773928;30;20842;-86
2023/04/18 12:20:52;;;;;;;8.73;5.40;;;13.40;89.10;;;;;;4759121;30;20373;-86
2023/04/18 12:23:35;;;;;;;7.50;5.13;;;13.50;88.20;;;;;;4773192;30;20308;-86
2023/04/18 12:26:12;;;;;;;11.00;5.43;;;13.50;88.10;;;;;;4773925;30;20374;-86
2023/04/18 12:28:38;;;;;;;10.30;5.73;;;13.50;88.30;;;;;;4773763;30;20301;-86
2023/04/18 12:31:06;;;;;;;9.80;5.37;;;13.60;88.40;;;;;;4773004;30;20763;-87
2023/04/18 12:33:32;;;;;;;9.03;5.43;;;13.50;89.50;;;;;;4744692;30;20090;-87
2023/04/18 12:35:58;;;;;;;7.70;4.83;;;13.50;91.00;;;;;;4759441;30;20607;-86
2023/04/18 12:38:24;;;;;;;9.53;5.90;;;13.50;92.10;;;;;;4773040;30;20305;-86
2023/04/18 12:40:51;;;;;;;7.60;5.13;;;13.50;92.20;;;;;;4773214;30;20361;-84
2023/04/18 12:43:17;;;;;;;7.83;5.40;;;13.70;92.20;;;;;;4773192;30;20734;-86
2023/04/18 12:45:44;;;;;;;9.40;5.07;;;13.70;91.00;;;;;;4789102;30;20289;-86
2023/04/18 12:48:10;;;;;;;7.63;5.53;;;13.60;89.90;;;;;;4758330;30;20305;-86
2023/04/18 12:50:36;;;;;;;9.10;5.07;;;13.70;90.00;;;;;;4772927;30;20760;-87
2023/04/18 12:53:02;;;;;;;8.30;5.30;;;13.60;90.00;;;;;;4774353;30;20062;-88